Escondido (450, 452, 454, 455) Station Data

Red Flag Warning: No
Fire Weather Zone: 250
SDGE Region: North East
Lat/Lon: 33.159/-117.031

Observations

Time Wind Speed/Gust Temp(F) RH Fuel Moist Fuel Temp(F) Dewpt(F) Tmax(F) Tmin(F) Accum Precip 10-min Precip SL Press(mb)
5/24 8:20am 168 3 G 5 62° 76% - - 55° 62.8° 55.2° - - -
5/24 8:10am 106 3 G 6 62° 77% - - 55° 62.8° 55.2° - - -
5/24 8:00am 155 3 G 8 61° 81% - - 55° 61.9° 55.2° - - -
5/24 7:50am 357 4 G 8 59° 86% - - 55° 60.4° 55.2° - - -
5/24 7:40am 6 5 G 8 59° 89% - - 55° 59.6° 55.2° - - -
5/24 7:30am 32 2 G 7 58° 89% - - 55° 59.6° 55.2° - - -
5/24 7:20am 359 3 G 7 58° 90% - - 55° 59.6° 55.2° - - -
5/24 7:10am 29 3 G 6 58° 90% - - 55° 59.6° 55.2° - - -
5/24 7:00am 162 2 G 4 58° 91% - - 55° 59.6° 55.2° - - -
5/24 6:50am 143 1 G 3 58° 91% - - 55° 59.6° 55.2° - - -
5/24 6:40am 66 2 G 4 57° 91% - - 55° 59.6° 55.2° - - -
5/24 6:30am 158 1 G 3 57° 91% - - 55° 59.6° 55.2° - - -
5/24 6:20am 209 1 G 4 57° 90% - - 54° 59.6° 55.2° - - -
5/24 6:10am 177 2 G 4 57° 90% - - 54° 59.6° 55.2° - - -
5/24 6:00am 204 3 G 7 56° 90% - - 53° 59.6° 55.2° - - -
5/24 5:50am 159 5 G 8 56° 89% - - 53° 59.6° 55.2° - - -
5/24 5:40am 282 2 G 5 56° 89% - - 53° 59.6° 55.2° - - -
5/24 5:30am 41 2 G 5 56° 90% - - 53° 59.6° 55.2° - - -
5/24 5:20am 60 4 G 8 56° 90% - - 53° 59.6° 55.2° - - -
5/24 5:10am 16 4 G 8 56° 90% - - 53° 59.6° 55.2° - - -
5/24 5:00am 8 4 G 7 57° 90% - - 53° 59.6° 55.2° - - -
5/24 4:50am 170 2 G 5 57° 89% - - 53° 59.6° 55.2° - - -
5/24 4:40am 351 2 G 5 57° 89% - - 54° 59.6° 55.2° - - -
5/24 4:30am 20 4 G 6 57° 88% - - 54° 59.6° 55.2° - - -
5/24 4:20am 357 2 G 3 58° 88% - - 54° 59.6° 55.2° - - -
5/24 4:10am 164 1 G 3 57° 87% - - 54° 59.6° 55.2° - - -
5/24 4:00am 29 1 G 3 57° 87% - - 53° 59.6° 55.2° - - -
5/24 3:50am 27 2 G 4 56° 86% - - 52° 59.6° 55.2° - - -
5/24 3:40am 27 3 G 4 56° 85% - - 52° 59.6° 55.2° - - -
5/24 3:30am 10 2 G 3 56° 84% - - 52° 59.6° 55.2° - - -
5/24 3:20am 356 1 G 4 56° 85% - - 52° 59.6° 55.2° - - -
5/24 3:10am 1 0 G 1 56° 85% - - 51° 59.6° 55.2° - - -
5/24 3:00am 6 0 G 2 55° 85% - - 51° 59.6° 55.2° - - -
5/24 2:50am 356 0 G 2 56° 84% - - 51° 59.6° 55.3° - - -
5/24 2:40am 20 1 G 2 56° 84% - - 51° 59.6° 55.6° - - -
5/24 2:30am 9 2 G 3 56° 84% - - 52° 59.6° 55.9° - - -
5/24 2:20am 360 2 G 3 56° 84% - - 51° 59.6° 56° - - -
5/24 2:10am 4 2 G 4 57° 83% - - 52° 59.6° 56.3° - - -
5/24 2:00am 333 1 G 3 57° 83% - - 52° 59.6° 56.7° - - -
5/24 1:50am 14 0 G 1 57° 83% - - 52° 59.6° 56.8° - - -
5/24 1:40am 303 1 G 2 58° 81% - - 52° 59.6° 57.1° - - -
5/24 1:30am 19 0 G 2 58° 81% - - 52° 59.6° 57.5° - - -
5/24 1:20am 296 1 G 2 58° 81% - - 52° 59.6° 57.8° - - -
5/24 1:10am 13 1 G 2 58° 80% - - 52° 59.6° 57.8° - - -
5/24 1:00am 27 2 G 3 58° 81% - - 53° 59.6° 57.8° - - -
5/24 12:50am 34 1 G 3 58° 81% - - 53° 59.6° 57.8° - - -
5/24 12:40am 12 3 G 5 58° 81% - - 52° 59.6° 57.8° - - -
5/24 12:30am 11 4 G 6 59° 80% - - 52° 59.6° 58.1° - - -
5/24 12:20am 329 1 G 3 59° 79% - - 53° 59.6° 58.9° - - -
5/24 12:10am 5 1 G 3 59° 79% - - 53° 59.6° 59.1° - - -
5/24 12:00am 8 1 G 2 60° 78% - - 53° 87.7° 54.9° - - -
5/23 11:50pm 7 2 G 3 60° 78% - - 53° 87.7° 54.9° - - -
5/23 11:40pm 343 2 G 3 60° 77% - - 53° 87.7° 54.9° - - -
5/23 11:30pm 2 1 G 3 61° 76% - - 53° 87.7° 54.9° - - -
5/23 11:20pm 12 2 G 4 61° 76% - - 53° 87.7° 54.9° - - -
5/23 11:10pm 8 4 G 6 61° 75% - - 53° 87.7° 54.9° - - -
5/23 11:00pm 345 2 G 3 62° 74% - - 53° 87.7° 54.9° - - -
5/23 10:50pm 16 1 G 2 62° 73% - - 53° 87.7° 54.9° - - -
5/23 10:40pm 335 1 G 2 62° 72% - - 53° 87.7° 54.9° - - -
5/23 10:30pm 11 1 G 3 63° 71% - - 54° 87.7° 54.9° - - -
5/23 10:20pm 10 2 G 3 63° 70% - - 54° 87.7° 54.9° - - -
5/23 10:10pm 22 3 G 4 64° 70% - - 54° 87.7° 54.9° - - -
5/23 10:00pm 1 2 G 4 64° 70% - - 54° 87.7° 54.9° - - -
5/23 9:50pm 353 2 G 3 64° 69% - - 54° 87.7° 54.9° - - -
5/23 9:40pm 353 2 G 3 65° 68% - - 54° 87.7° 54.9° - - -
5/23 9:30pm 353 2 G 4 65° 66% - - 54° 87.7° 54.9° - - -
5/23 9:20pm 347 2 G 4 66° 65% - - 54° 87.7° 54.9° - - -
5/23 9:10pm 356 2 G 4 67° 64% - - 54° 87.7° 54.9° - - -
5/23 9:00pm 345 2 G 4 67° 63% - - 54° 87.7° 54.9° - - -
5/23 8:50pm 340 2 G 3 68° 60% - - 54° 87.7° 54.9° - - -
5/23 8:40pm 332 1 G 3 68° 60% - - 54° 87.7° 54.9° - - -
5/23 8:30pm 340 1 G 3 69° 59% - - 54° 87.7° 54.9° - - -
5/23 8:20pm 318 2 G 3 70° 58% - - 54° 87.7° 54.9° - - -
5/23 8:10pm 329 2 G 3 70° 58% - - 55° 87.7° 54.9° - - -
5/23 8:00pm 341 2 G 3 70° 59% - - 55° 87.7° 54.9° - - -
5/23 7:50pm 322 2 G 4 71° 57% - - 55° 87.7° 54.9° - - -
5/23 7:40pm 290 2 G 4 72° 55% - - 55° 87.7° 54.9° - - -
5/23 7:30pm 248 2 G 3 73° 51% - - 54° 87.7° 54.9° - - -
5/23 7:20pm 202 2 G 4 73° 51% - - 54° 87.7° 54.9° - - -
5/23 7:10pm 213 3 G 5 74° 50% - - 54° 87.7° 54.9° - - -
5/23 7:00pm 208 4 G 6 75° 49% - - 54° 87.7° 54.9° - - -
5/23 6:50pm 203 4 G 8 76° 47% - - 54° 87.7° 54.9° - - -
5/23 6:40pm 205 4 G 7 76° 46% - - 54° 87.7° 54.9° - - -
5/23 6:30pm 186 5 G 9 77° 45% - - 54° 87.7° 54.9° - - -
5/23 6:20pm 202 5 G 7 77° 44% - - 54° 87.7° 54.9° - - -
5/23 6:10pm 188 5 G 8 79° 42% - - 54° 87.7° 54.9° - - -
5/23 6:00pm 193 5 G 9 81° 39% - - 53° 87.7° 54.9° - - -
5/23 5:50pm 224 4 G 8 82° 36% - - 52° 87.7° 54.9° - - -
5/23 5:40pm 250 5 G 10 83° 32% - - 50° 87.7° 54.9° - - -
5/23 5:30pm 226 5 G 9 86° 27% - - 47° 87.7° 54.9° - - -
5/23 5:20pm 217 3 G 7 87° 24% - - 46° 87.7° 54.9° - - -
5/23 5:10pm 226 3 G 7 86° 25% - - 46° 87.7° 54.9° - - -
5/23 5:00pm 199 3 G 5 86° 25% - - 47° 87.7° 54.9° - - -
5/23 4:50pm 214 3 G 5 86° 27% - - 48° 87.7° 54.9° - - -
5/23 4:40pm 197 3 G 6 85° 28% - - 48° 87.7° 54.9° - - -
5/23 4:30pm 220 4 G 8 84° 27% - - 47° 87.7° 54.9° - - -
5/23 4:20pm 174 4 G 7 84° 27% - - 47° 87.7° 54.9° - - -
5/23 4:10pm 188 4 G 7 84° 28% - - 48° 87.7° 54.9° - - -
5/23 4:00pm 197 3 G 6 84° 29% - - 48° 87.7° 54.9° - - -
5/23 3:50pm 206 4 G 8 83° 31% - - 49° 87.7° 54.9° - - -
5/23 3:40pm 191 4 G 9 82° 33% - - 50° 87.7° 54.9° - - -
5/23 3:30pm 193 5 G 8 82° 37% - - 53° 87.7° 54.9° - - -
5/23 3:20pm 193 5 G 8 81° 40% - - 54° 87.7° 54.9° - - -
5/23 3:10pm 174 5 G 8 80° 42% - - 55° 87.7° 54.9° - - -
5/23 3:00pm 180 4 G 7 79° 44% - - 56° 87.7° 54.9° - - -
5/23 2:50pm 175 4 G 7 78° 46% - - 56° 87.7° 54.9° - - -
5/23 2:40pm 176 3 G 6 78° 47% - - 56° 87.7° 54.9° - - -
5/23 2:30pm 188 5 G 9 77° 48% - - 56° 87.7° 54.9° - - -
5/23 2:20pm 202 5 G 9 77° 49% - - 56° 87.7° 54.9° - - -
5/23 2:10pm 195 4 G 8 76° 50% - - 56° 87.7° 54.9° - - -
5/23 2:00pm 185 6 G 11 76° 50% - - 56° 87.7° 54.9° - - -
5/23 1:50pm 188 6 G 11 76° 51% - - 56° 87.7° 54.9° - - -
5/23 1:40pm 203 7 G 12 76° 52% - - 57° 87.7° 54.9° - - -
5/23 1:30pm 194 7 G 11 76° 52% - - 57° 87.7° 54.9° - - -
5/23 1:20pm 190 6 G 10 76° 51% - - 57° 87.7° 54.9° - - -
5/23 1:10pm 183 6 G 9 75° 53% - - 57° 87.7° 54.9° - - -
5/23 1:00pm 189 5 G 9 75° 53% - - 57° 87.7° 54.9° - - -
5/23 12:50pm 195 6 G 11 74° 54% - - 57° 87.7° 54.9° - - -
5/23 12:40pm 201 6 G 10 75° 53% - - 57° 87.7° 54.9° - - -
5/23 12:30pm 193 5 G 14 75° 52% - - 57° 87.7° 54.9° - - -
5/23 12:20pm 195 6 G 10 76° 52% - - 57° 87.7° 54.9° - - -
5/23 12:10pm 219 6 G 13 77° 49% - - 57° 87.7° 54.9° - - -
5/23 12:00pm 201 7 G 13 80° 45% - - 57° 87.7° 54.9° - - -
5/23 11:50am 235 6 G 11 80° 44% - - 56° 87.7° 54.9° - - -
5/23 11:40am 234 7 G 12 83° 39% - - 56° 87.7° 54.9° - - -
5/23 11:30am 205 7 G 12 87° 30% - - 51° 87.7° 54.9° - - -
5/23 11:20am 191 4 G 9 87° 25% - - 47° 87.4° 54.9° - - -
5/23 11:10am 191 5 G 8 86° 26% - - 48° 86.9° 54.9° - - -
5/23 11:00am 191 3 G 6 86° 25% - - 46° 86.4° 54.9° - - -
5/23 10:50am 210 3 G 7 85° 28% - - 48° 85.1° 54.9° - - -
5/23 10:40am 197 4 G 7 84° 29% - - 49° 84.6° 54.9° - - -
5/23 10:30am 196 3 G 7 83° 31% - - 49° 83.5° 54.9° - - -
5/23 10:20am 203 3 G 6 82° 33% - - 50° 81.8° 54.9° - - -
5/23 10:10am 196 2 G 4 81° 38% - - 53° 81.2° 54.9° - - -
5/23 10:00am 165 2 G 5 79° 42% - - 54° 80.2° 54.9° - - -
5/23 9:50am 232 1 G 3 77° 44% - - 53° 78.2° 54.9° - - -
5/23 9:40am 273 1 G 4 76° 45% - - 53° 76° 54.9° - - -
5/23 9:30am 112 1 G 2 74° 50% - - 54° 75.1° 54.9° - - -
5/23 9:20am 207 2 G 3 71° 56% - - 55° 72.5° 54.9° - - -
5/23 9:10am 191 2 G 4 70° 56% - - 54° 70.9° 54.9° - - -
5/23 9:00am 191 1 G 3 68° 60% - - 54° 69.4° 54.9° - - -
5/23 8:50am 169 1 G 3 67° 64% - - 55° 68.1° 54.9° - - -
5/23 8:40am 170 2 G 4 66° 67% - - 55° 66.4° 54.9° - - -
5/23 8:30am 170 2 G 4 64° 70% - - 54° 65.3° 54.9° - - -
5/23 8:20am 179 1 G 3 64° 70% - - 54° 64.5° 54.9° - - -
5/23 8:10am 83 0 G 2 63° 72% - - 54° 63.9° 54.9° - - -
5/23 8:00am 152 0 G 2 62° 75% - - 54° 62.7° 54.9° - - -
5/23 7:50am 78 1 G 2 61° 76% - - 54° 61.6° 54.9° - - -
5/23 7:40am 127 1 G 4 61° 77% - - 54° 61.2° 54.9° - - -
5/23 7:30am 150 2 G 4 60° 78% - - 54° 60.8° 54.9° - - -
5/23 7:20am 136 1 G 3 60° 79% - - 53° 60.5° 54.9° - - -
5/23 7:10am 110 1 G 3 59° 80% - - 53° 60.5° 54.9° - - -
5/23 7:00am 18 1 G 3 57° 82% - - 52° 60.5° 54.9° - - -
5/23 6:50am 323 1 G 2 56° 83% - - 51° 60.5° 54.9° - - -
5/23 6:40am 284 1 G 2 56° 83% - - 51° 60.5° 54.9° - - -
5/23 6:30am 1 1 G 3 56° 83% - - 51° 60.5° 54.9° - - -
5/23 6:20am 350 1 G 3 55° 84% - - 51° 60.5° 54.9° - - -
5/23 6:10am 13 2 G 3 55° 84% - - 51° 60.5° 54.9° - - -
5/23 6:00am 29 2 G 4 55° 85% - - 51° 60.5° 54.9° - - -